Toyo Eagle — H3LY — position and weather

sailwx.info

Track history (hours):
 
Tides and Currents Weather Stations Pressure Air Temp Water Temp Dewpoint Dewpoint Depression Visibility Wind Speed Wind Dir Waves Ship Positions

Toyo Eagle

Last reported at 2017-Nov-08 20:57 UTC. Time now 2017-Dec-17 02:29 UTC.
Position N 21°33' E 113°41'.
Warning: this ship's position is 38 days out of date.

Length 108 m; draft 7.8 m.

Type: Cargo ship. MMSI: 355327000.

Date/timePositionNaut miles runAvg speedWind from/ knotsBaromVisibWave heightAir tempDewpointWater temp
2017-Nov-08 20:57N 21°33' E 113°41'610.8
2017-Nov-08 20:23N 21°38' E 113°44'510.7
2017-Nov-08 19:56N 21°42' E 113°46'510.8
2017-Nov-08 19:30N 21°46' E 113°49'610.9
2017-Nov-08 18:59N 21°51' E 113°52'510.8
2017-Nov-08 18:30N 21°54' E 113°57'610.7
2017-Nov-08 17:58N 21°57' E 114°02'14 3.1
2017-Nov-08 13:33N 22°10' E 114°07'9 4.2
2017-Nov-08 11:20N 22°08' E 114°17'411.1
2017-Nov-08 10:59N 22°08' E 114°21'611.2
2017-Nov-08 10:28N 22°08' E 114°28'510.8
2017-Nov-08 10:00N 22°09' E 114°33'611.1
2017-Nov-08 09:30N 22°11' E 114°39'511.0
2017-Nov-08 09:00N 22°13' E 114°44'510.8
2017-Nov-08 08:30N 22°16' E 114°49'510.7
2017-Nov-08 08:00N 22°18' E 114°54'510.5
2017-Nov-08 07:30N 22°20' E 114°60'510.8
2017-Nov-08 07:00N 22°21' E 115°05'1210.8
2017-Nov-08 05:54N 22°23' E 115°18'510.9
2017-Nov-08 05:27N 22°24' E 115°23'19510.8
2017-Nov-07 11:24N 23°57' E 118°30'411.3
2017-Nov-07 11:00N 23°60' E 118°33'610.9
2017-Nov-07 10:30N 24°02' E 118°39'  
Track history (hours):
 
Tides and Currents Weather Stations Pressure Air Temp Water Temp Dewpoint Dewpoint Depression Visibility Wind Speed Wind Dir Waves Ship Positions

Toyo Eagle

Last reported at 2017-Nov-08 20:57 UTC. Time now 2017-Dec-17 02:29 UTC.
Position N 21°33' E 113°41'.
Warning: this ship's position is 38 days out of date.

Length 108 m; draft 7.8 m.

Type: Cargo ship. MMSI: 355327000.

Date/timePositionNaut miles runAvg speedWind from/ knotsBaromVisibWave heightAir tempDewpointWater temp
2017-Nov-08 20:57N 21°33' E 113°41'610.8
2017-Nov-08 20:23N 21°38' E 113°44'510.7
2017-Nov-08 19:56N 21°42' E 113°46'510.8
2017-Nov-08 19:30N 21°46' E 113°49'610.9
2017-Nov-08 18:59N 21°51' E 113°52'510.8
2017-Nov-08 18:30N 21°54' E 113°57'610.7
2017-Nov-08 17:58N 21°57' E 114°02'14 3.1
2017-Nov-08 13:33N 22°10' E 114°07'9 4.2
2017-Nov-08 11:20N 22°08' E 114°17'411.1
2017-Nov-08 10:59N 22°08' E 114°21'611.2
2017-Nov-08 10:28N 22°08' E 114°28'510.8
2017-Nov-08 10:00N 22°09' E 114°33'611.1
2017-Nov-08 09:30N 22°11' E 114°39'511.0
2017-Nov-08 09:00N 22°13' E 114°44'510.8
2017-Nov-08 08:30N 22°16' E 114°49'510.7
2017-Nov-08 08:00N 22°18' E 114°54'510.5
2017-Nov-08 07:30N 22°20' E 114°60'510.8
2017-Nov-08 07:00N 22°21' E 115°05'1210.8
2017-Nov-08 05:54N 22°23' E 115°18'510.9
2017-Nov-08 05:27N 22°24' E 115°23'19510.8
2017-Nov-07 11:24N 23°57' E 118°30'411.3
2017-Nov-07 11:00N 23°60' E 118°33'610.9
2017-Nov-07 10:30N 24°02' E 118°39'  

Dump ship's entire track history